Abraham Baldwin College, Georgia
Current Conditions -  °F | °C
As of 8:55 AM on Saturday 22 Nov 2014 (Local Time) from KTMA Reporting Station
Scattered Clouds Scattered Clouds  
Wind Chill: 45°   Ceiling: Unl
Heat Index: 49°   Visibility: 10mi
Dew Point: 42°   Wind: 10mph
Humidity: 78%   Direction: 70°ENE
Pressure: 30.39"   Gusts: NA
Location:  31.4406°N, 83.464°W
Report Text: KTMA 221355Z AUTO 07009KT 10SM SCT060 10/06 A3039 RMK AO2 T00950058
Loading
Personal Weather Stations






























Interactive Weather Map New forecast layout! Learn more

10-Day Weather Forecast

Advertisements
Track Severe Weather on mobile